Terminal Aerodrome Forecast
Issued by NWS

Home | Current Version | Previous Version | Text Only | Print | Product List | Glossary On
Versions: 1 2 3 4 5 6 7 8 9 10 11 12 13 14 15 16
000
FTUS44 KMOB 262120 AAA
TAFBFM
TAF AMD
KBFM 262120Z 2621/2718 13012KT P6SM VCTS FEW015 BKN025CB OVC060
      TEMPO 2621/2623 VRB15G25KT 3SM TSRA
     FM262300 VRB04KT P6SM VCSH SCT025 BKN070
     FM270600 32002KT P6SM SCT250
     FM271200 01003KT 4SM BR SCT250=

USA.gov is the U.S. government's official web portal to all federal, state and local government web resources and services.